sensor_id;sensor_type;location;lat;lon;timestamp;temperature;humidity
53286;DHT22;39171;45.550;12.074;2022-07-22T00:01:36;29.30;61.90
53286;DHT22;39171;45.550;12.074;2022-07-22T00:07:38;29.30;62.40
53286;DHT22;39171;45.550;12.074;2022-07-22T00:13:40;29.30;63.00
53286;DHT22;39171;45.550;12.074;2022-07-22T00:19:41;29.30;63.50
53286;DHT22;39171;45.550;12.074;2022-07-22T00:25:43;29.30;63.90
53286;DHT22;39171;45.550;12.074;2022-07-22T00:31:44;29.30;64.30
53286;DHT22;39171;45.550;12.074;2022-07-22T00:37:46;29.30;64.80
53286;DHT22;39171;45.550;12.074;2022-07-22T00:43:55;29.20;65.20
53286;DHT22;39171;45.550;12.074;2022-07-22T00:49:56;29.30;66.00
53286;DHT22;39171;45.550;12.074;2022-07-22T00:55:58;29.20;66.00
53286;DHT22;39171;45.550;12.074;2022-07-22T01:02:00;29.20;66.50
53286;DHT22;39171;45.550;12.074;2022-07-22T01:08:05;29.20;66.90
53286;DHT22;39171;45.550;12.074;2022-07-22T01:14:07;29.20;67.20
53286;DHT22;39171;45.550;12.074;2022-07-22T01:20:09;29.20;67.40
53286;DHT22;39171;45.550;12.074;2022-07-22T01:26:11;29.10;67.80
53286;DHT22;39171;45.550;12.074;2022-07-22T01:32:13;29.10;68.10
53286;DHT22;39171;45.550;12.074;2022-07-22T01:38:15;29.10;68.50
53286;DHT22;39171;45.550;12.074;2022-07-22T01:44:17;29.10;68.70
53286;DHT22;39171;45.550;12.074;2022-07-22T01:50:18;29.10;69.00
53286;DHT22;39171;45.550;12.074;2022-07-22T01:56:20;29.10;69.30
53286;DHT22;39171;45.550;12.074;2022-07-22T02:02:24;29.10;69.60
53286;DHT22;39171;45.550;12.074;2022-07-22T02:08:26;29.00;69.80
53286;DHT22;39171;45.550;12.074;2022-07-22T02:14:51;29.00;70.00
53286;DHT22;39171;45.550;12.074;2022-07-22T02:20:53;29.00;70.30
53286;DHT22;39171;45.550;12.074;2022-07-22T02:26:54;29.00;70.50
53286;DHT22;39171;45.550;12.074;2022-07-22T02:32:56;29.00;70.80
53286;DHT22;39171;45.550;12.074;2022-07-22T02:38:58;29.00;71.00
53286;DHT22;39171;45.550;12.074;2022-07-22T02:45:00;29.00;71.20
53286;DHT22;39171;45.550;12.074;2022-07-22T02:51:03;29.00;71.40
53286;DHT22;39171;45.550;12.074;2022-07-22T02:57:05;28.90;71.60
53286;DHT22;39171;45.550;12.074;2022-07-22T03:03:06;28.90;71.60
53286;DHT22;39171;45.550;12.074;2022-07-22T03:09:08;28.90;71.80
53286;DHT22;39171;45.550;12.074;2022-07-22T03:15:12;28.90;72.10
53286;DHT22;39171;45.550;12.074;2022-07-22T03:21:13;28.90;72.20
53286;DHT22;39171;45.550;12.074;2022-07-22T03:27:15;28.80;72.30
53286;DHT22;39171;45.550;12.074;2022-07-22T03:33:16;28.80;72.90
53286;DHT22;39171;45.550;12.074;2022-07-22T03:39:18;28.80;73.00
53286;DHT22;39171;45.550;12.074;2022-07-22T03:45:19;28.80;73.00
53286;DHT22;39171;45.550;12.074;2022-07-22T03:51:20;28.80;73.30
53286;DHT22;39171;45.550;12.074;2022-07-22T03:57:22;28.80;73.40
53286;DHT22;39171;45.550;12.074;2022-07-22T04:03:33;28.80;73.80
53286;DHT22;39171;45.550;12.074;2022-07-22T04:09:42;28.80;73.80
53286;DHT22;39171;45.550;12.074;2022-07-22T04:15:43;28.70;74.00
53286;DHT22;39171;45.550;12.074;2022-07-22T04:21:45;28.70;74.70
53286;DHT22;39171;45.550;12.074;2022-07-22T04:27:47;28.70;75.00
53286;DHT22;39171;45.550;12.074;2022-07-22T04:33:49;28.70;75.10
53286;DHT22;39171;45.550;12.074;2022-07-22T04:39:50;28.70;75.10
53286;DHT22;39171;45.550;12.074;2022-07-22T04:45:52;28.70;75.20
53286;DHT22;39171;45.550;12.074;2022-07-22T04:51:54;28.70;75.30
53286;DHT22;39171;45.550;12.074;2022-07-22T04:58:10;28.70;75.50
53286;DHT22;39171;45.550;12.074;2022-07-22T05:04:12;28.70;75.40
53286;DHT22;39171;45.550;12.074;2022-07-22T05:10:16;28.70;75.20
53286;DHT22;39171;45.550;12.074;2022-07-22T05:16:18;28.60;75.50
53286;DHT22;39171;45.550;12.074;2022-07-22T05:22:21;28.70;75.30
53286;DHT22;39171;45.550;12.074;2022-07-22T05:28:31;28.70;75.40
53286;DHT22;39171;45.550;12.074;2022-07-22T05:34:33;28.70;75.40
53286;DHT22;39171;45.550;12.074;2022-07-22T05:40:34;28.70;75.20
53286;DHT22;39171;45.550;12.074;2022-07-22T05:46:37;28.70;75.20
53286;DHT22;39171;45.550;12.074;2022-07-22T05:52:40;28.70;75.40
53286;DHT22;39171;45.550;12.074;2022-07-22T05:58:43;28.70;75.20
53286;DHT22;39171;45.550;12.074;2022-07-22T06:04:47;28.70;75.20
53286;DHT22;39171;45.550;12.074;2022-07-22T06:10:51;28.70;75.50
53286;DHT22;39171;45.550;12.074;2022-07-22T06:16:54;28.70;75.40
53286;DHT22;39171;45.550;12.074;2022-07-22T06:22:56;28.70;75.50
53286;DHT22;39171;45.550;12.074;2022-07-22T06:28:59;28.70;75.60
53286;DHT22;39171;45.550;12.074;2022-07-22T06:35:01;28.70;75.50
53286;DHT22;39171;45.550;12.074;2022-07-22T06:41:03;28.70;75.40
53286;DHT22;39171;45.550;12.074;2022-07-22T06:47:28;28.70;75.50
53286;DHT22;39171;45.550;12.074;2022-07-22T06:53:29;28.70;75.30
53286;DHT22;39171;45.550;12.074;2022-07-22T06:59:31;28.70;75.20
53286;DHT22;39171;45.550;12.074;2022-07-22T07:05:37;28.80;75.00
53286;DHT22;39171;45.550;12.074;2022-07-22T07:11:39;28.70;75.00
53286;DHT22;39171;45.550;12.074;2022-07-22T07:17:49;28.70;74.70
53286;DHT22;39171;45.550;12.074;2022-07-22T07:23:51;28.80;74.50
53286;DHT22;39171;45.550;12.074;2022-07-22T07:29:54;28.80;74.30
53286;DHT22;39171;45.550;12.074;2022-07-22T07:35:56;28.80;74.10
53286;DHT22;39171;45.550;12.074;2022-07-22T07:42:09;28.80;73.80
53286;DHT22;39171;45.550;12.074;2022-07-22T07:48:16;28.80;73.50
53286;DHT22;39171;45.550;12.074;2022-07-22T07:54:18;28.90;73.00
53286;DHT22;39171;45.550;12.074;2022-07-22T08:00:23;29.00;72.60
53286;DHT22;39171;45.550;12.074;2022-07-22T08:06:26;29.00;72.30
53286;DHT22;39171;45.550;12.074;2022-07-22T08:12:27;29.10;71.60
53286;DHT22;39171;45.550;12.074;2022-07-22T08:18:49;29.10;71.30
53286;DHT22;39171;45.550;12.074;2022-07-22T08:24:51;29.10;70.70
53286;DHT22;39171;45.550;12.074;2022-07-22T08:30:54;29.20;70.90
53286;DHT22;39171;45.550;12.074;2022-07-22T08:36:59;29.20;70.40
53286;DHT22;39171;45.550;12.074;2022-07-22T08:43:01;29.20;69.90
53286;DHT22;39171;45.550;12.074;2022-07-22T08:49:06;29.30;70.20
53286;DHT22;39171;45.550;12.074;2022-07-22T08:55:19;29.30;69.20
53286;DHT22;39171;45.550;12.074;2022-07-22T09:01:21;29.30;68.20
53286;DHT22;39171;45.550;12.074;2022-07-22T09:07:34;29.30;67.50
53286;DHT22;39171;45.550;12.074;2022-07-22T09:13:43;29.30;66.90
53286;DHT22;39171;45.550;12.074;2022-07-22T09:20:18;29.30;66.80
53286;DHT22;39171;45.550;12.074;2022-07-22T09:26:39;29.40;66.10
53286;DHT22;39171;45.550;12.074;2022-07-22T09:33:10;29.40;65.90
53286;DHT22;39171;45.550;12.074;2022-07-22T09:39:31;29.50;65.00
53286;DHT22;39171;45.550;12.074;2022-07-22T09:45:34;29.50;64.20
53286;DHT22;39171;45.550;12.074;2022-07-22T09:51:37;29.50;63.20
53286;DHT22;39171;45.550;12.074;2022-07-22T09:57:39;29.60;62.20
53286;DHT22;39171;45.550;12.074;2022-07-22T10:03:40;29.70;61.20
53286;DHT22;39171;45.550;12.074;2022-07-22T10:09:46;29.80;60.30
53286;DHT22;39171;45.550;12.074;2022-07-22T10:15:48;29.80;58.90
53286;DHT22;39171;45.550;12.074;2022-07-22T10:21:50;29.80;58.10
53286;DHT22;39171;45.550;12.074;2022-07-22T10:28:04;29.80;57.00
53286;DHT22;39171;45.550;12.074;2022-07-22T10:34:06;29.80;56.20
53286;DHT22;39171;45.550;12.074;2022-07-22T10:40:21;29.90;55.20
53286;DHT22;39171;45.550;12.074;2022-07-22T10:46:52;29.90;54.80
53286;DHT22;39171;45.550;12.074;2022-07-22T10:52:55;30.00;53.00
53286;DHT22;39171;45.550;12.074;2022-07-22T10:59:15;30.00;52.00
53286;DHT22;39171;45.550;12.074;2022-07-22T11:05:25;30.10;51.10
53286;DHT22;39171;45.550;12.074;2022-07-22T11:11:46;30.20;50.80
53286;DHT22;39171;45.550;12.074;2022-07-22T11:17:48;30.20;50.10
53286;DHT22;39171;45.550;12.074;2022-07-22T11:23:53;30.20;49.40
53286;DHT22;39171;45.550;12.074;2022-07-22T11:29:55;30.30;48.60
53286;DHT22;39171;45.550;12.074;2022-07-22T11:36:07;30.30;47.60
53286;DHT22;39171;45.550;12.074;2022-07-22T11:42:10;30.30;46.90
53286;DHT22;39171;45.550;12.074;2022-07-22T11:48:12;30.30;46.70
53286;DHT22;39171;45.550;12.074;2022-07-22T11:54:14;30.40;46.30
53286;DHT22;39171;45.550;12.074;2022-07-22T12:00:17;30.50;46.50
53286;DHT22;39171;45.550;12.074;2022-07-22T12:06:21;30.60;45.90
53286;DHT22;39171;45.550;12.074;2022-07-22T12:12:39;30.60;45.30
53286;DHT22;39171;45.550;12.074;2022-07-22T12:18:41;30.70;44.70
53286;DHT22;39171;45.550;12.074;2022-07-22T12:24:45;30.70;44.60
53286;DHT22;39171;45.550;12.074;2022-07-22T12:30:48;30.70;44.50
53286;DHT22;39171;45.550;12.074;2022-07-22T12:36:50;30.70;44.10
53286;DHT22;39171;45.550;12.074;2022-07-22T12:43:06;30.80;43.90
53286;DHT22;39171;45.550;12.074;2022-07-22T12:49:08;30.80;43.00
53286;DHT22;39171;45.550;12.074;2022-07-22T12:55:09;30.90;42.90
53286;DHT22;39171;45.550;12.074;2022-07-22T13:01:11;31.00;42.40
53286;DHT22;39171;45.550;12.074;2022-07-22T13:07:12;31.00;42.10
53286;DHT22;39171;45.550;12.074;2022-07-22T13:13:14;31.10;41.70
53286;DHT22;39171;45.550;12.074;2022-07-22T13:19:15;31.10;41.30
53286;DHT22;39171;45.550;12.074;2022-07-22T13:25:20;31.20;40.70
53286;DHT22;39171;45.550;12.074;2022-07-22T13:31:21;31.20;40.60
53286;DHT22;39171;45.550;12.074;2022-07-22T13:37:23;31.30;40.00
53286;DHT22;39171;45.550;12.074;2022-07-22T13:43:25;31.30;39.50
53286;DHT22;39171;45.550;12.074;2022-07-22T13:49:27;31.30;39.10
53286;DHT22;39171;45.550;12.074;2022-07-22T13:55:28;31.40;38.80
53286;DHT22;39171;45.550;12.074;2022-07-22T14:01:31;31.40;38.50
53286;DHT22;39171;45.550;12.074;2022-07-22T14:07:33;31.50;38.00
53286;DHT22;39171;45.550;12.074;2022-07-22T14:13:34;31.50;37.70
53286;DHT22;39171;45.550;12.074;2022-07-22T14:19:36;31.60;37.30
53286;DHT22;39171;45.550;12.074;2022-07-22T14:25:38;31.70;36.90
53286;DHT22;39171;45.550;12.074;2022-07-22T14:31:40;31.70;36.50
53286;DHT22;39171;45.550;12.074;2022-07-22T14:37:41;31.70;36.20
53286;DHT22;39171;45.550;12.074;2022-07-22T14:43:45;31.70;36.20
53286;DHT22;39171;45.550;12.074;2022-07-22T14:49:47;31.60;36.00
53286;DHT22;39171;45.550;12.074;2022-07-22T14:55:48;31.60;35.70
53286;DHT22;39171;45.550;12.074;2022-07-22T15:01:49;31.60;35.30
53286;DHT22;39171;45.550;12.074;2022-07-22T15:07:51;31.60;34.70
53286;DHT22;39171;45.550;12.074;2022-07-22T15:13:52;31.60;34.60
53286;DHT22;39171;45.550;12.074;2022-07-22T15:19:54;31.50;34.80
53286;DHT22;39171;45.550;12.074;2022-07-22T15:25:57;31.50;35.20
53286;DHT22;39171;45.550;12.074;2022-07-22T15:32:04;31.40;35.40
53286;DHT22;39171;45.550;12.074;2022-07-22T15:38:05;31.40;35.80
53286;DHT22;39171;45.550;12.074;2022-07-22T15:44:08;31.40;36.30
53286;DHT22;39171;45.550;12.074;2022-07-22T15:50:09;31.50;36.50
53286;DHT22;39171;45.550;12.074;2022-07-22T15:56:11;31.40;36.60
53286;DHT22;39171;45.550;12.074;2022-07-22T16:02:12;31.40;36.80
53286;DHT22;39171;45.550;12.074;2022-07-22T16:08:18;31.40;36.90
53286;DHT22;39171;45.550;12.074;2022-07-22T16:14:20;31.30;37.10
53286;DHT22;39171;45.550;12.074;2022-07-22T16:20:21;31.30;37.30
53286;DHT22;39171;45.550;12.074;2022-07-22T16:26:23;31.30;37.30
53286;DHT22;39171;45.550;12.074;2022-07-22T16:32:25;31.30;37.50
53286;DHT22;39171;45.550;12.074;2022-07-22T16:38:26;31.30;37.70
53286;DHT22;39171;45.550;12.074;2022-07-22T16:44:28;31.30;37.80
53286;DHT22;39171;45.550;12.074;2022-07-22T16:50:36;31.30;37.90
53286;DHT22;39171;45.550;12.074;2022-07-22T16:56:37;31.30;38.00
53286;DHT22;39171;45.550;12.074;2022-07-22T17:02:39;31.30;38.20
53286;DHT22;39171;45.550;12.074;2022-07-22T17:08:41;31.30;38.50
53286;DHT22;39171;45.550;12.074;2022-07-22T17:14:42;31.20;38.70
53286;DHT22;39171;45.550;12.074;2022-07-22T17:20:43;31.20;38.80
53286;DHT22;39171;45.550;12.074;2022-07-22T17:26:45;31.20;39.00
53286;DHT22;39171;45.550;12.074;2022-07-22T17:32:46;31.20;39.10
53286;DHT22;39171;45.550;12.074;2022-07-22T17:38:48;31.10;39.20
53286;DHT22;39171;45.550;12.074;2022-07-22T17:44:49;31.10;39.30
53286;DHT22;39171;45.550;12.074;2022-07-22T17:50:51;31.10;39.50
53286;DHT22;39171;45.550;12.074;2022-07-22T17:56:52;31.00;39.70
53286;DHT22;39171;45.550;12.074;2022-07-22T18:02:54;31.00;40.00
53286;DHT22;39171;45.550;12.074;2022-07-22T18:08:56;31.00;40.20
53286;DHT22;39171;45.550;12.074;2022-07-22T18:14:57;31.00;40.50
53286;DHT22;39171;45.550;12.074;2022-07-22T18:21:00;31.00;40.80
53286;DHT22;39171;45.550;12.074;2022-07-22T18:27:01;31.00;41.00
53286;DHT22;39171;45.550;12.074;2022-07-22T18:33:02;30.80;41.10
53286;DHT22;39171;45.550;12.074;2022-07-22T18:39:04;30.90;41.30
53286;DHT22;39171;45.550;12.074;2022-07-22T18:45:06;30.80;41.60
53286;DHT22;39171;45.550;12.074;2022-07-22T18:51:07;30.80;41.90
53286;DHT22;39171;45.550;12.074;2022-07-22T18:57:09;30.80;42.10
53286;DHT22;39171;45.550;12.074;2022-07-22T19:03:11;30.80;42.30
53286;DHT22;39171;45.550;12.074;2022-07-22T19:09:13;30.70;42.60
53286;DHT22;39171;45.550;12.074;2022-07-22T19:15:14;30.70;42.80
53286;DHT22;39171;45.550;12.074;2022-07-22T19:21:16;30.70;43.00
53286;DHT22;39171;45.550;12.074;2022-07-22T19:27:17;30.60;43.20
53286;DHT22;39171;45.550;12.074;2022-07-22T19:33:19;30.70;43.40
53286;DHT22;39171;45.550;12.074;2022-07-22T19:39:20;30.60;43.70
53286;DHT22;39171;45.550;12.074;2022-07-22T19:45:22;30.50;44.00
53286;DHT22;39171;45.550;12.074;2022-07-22T19:51:23;30.60;44.30
53286;DHT22;39171;45.550;12.074;2022-07-22T19:57:24;30.60;44.50
53286;DHT22;39171;45.550;12.074;2022-07-22T20:03:28;30.50;44.80
53286;DHT22;39171;45.550;12.074;2022-07-22T20:09:30;30.50;45.10
53286;DHT22;39171;45.550;12.074;2022-07-22T20:15:31;30.40;45.40
53286;DHT22;39171;45.550;12.074;2022-07-22T20:21:33;30.50;45.70
53286;DHT22;39171;45.550;12.074;2022-07-22T20:27:34;30.40;45.90
53286;DHT22;39171;45.550;12.074;2022-07-22T20:33:36;30.40;46.20
53286;DHT22;39171;45.550;12.074;2022-07-22T20:39:37;30.40;46.40
53286;DHT22;39171;45.550;12.074;2022-07-22T20:45:39;30.40;46.70
53286;DHT22;39171;45.550;12.074;2022-07-22T20:51:40;30.40;46.90
53286;DHT22;39171;45.550;12.074;2022-07-22T20:57:42;30.30;47.10
53286;DHT22;39171;45.550;12.074;2022-07-22T21:03:44;30.30;47.20
53286;DHT22;39171;45.550;12.074;2022-07-22T21:09:45;30.30;47.30
53286;DHT22;39171;45.550;12.074;2022-07-22T21:15:46;30.30;47.40
53286;DHT22;39171;45.550;12.074;2022-07-22T21:21:48;30.20;47.50
53286;DHT22;39171;45.550;12.074;2022-07-22T21:27:49;30.20;47.60
53286;DHT22;39171;45.550;12.074;2022-07-22T21:33:51;30.20;47.70
53286;DHT22;39171;45.550;12.074;2022-07-22T21:39:53;30.20;47.70
53286;DHT22;39171;45.550;12.074;2022-07-22T21:45:54;30.10;47.70
53286;DHT22;39171;45.550;12.074;2022-07-22T21:51:55;30.10;47.70
53286;DHT22;39171;45.550;12.074;2022-07-22T21:57:57;30.10;47.80
53286;DHT22;39171;45.550;12.074;2022-07-22T22:03:59;30.10;47.90
53286;DHT22;39171;45.550;12.074;2022-07-22T22:10:00;30.00;48.20
53286;DHT22;39171;45.550;12.074;2022-07-22T22:16:02;30.10;48.80
53286;DHT22;39171;45.550;12.074;2022-07-22T22:22:04;30.00;49.40
53286;DHT22;39171;45.550;12.074;2022-07-22T22:28:05;30.00;49.90
53286;DHT22;39171;45.550;12.074;2022-07-22T22:34:06;30.00;50.30
53286;DHT22;39171;45.550;12.074;2022-07-22T22:40:08;30.00;50.80
53286;DHT22;39171;45.550;12.074;2022-07-22T22:46:10;30.00;51.60
53286;DHT22;39171;45.550;12.074;2022-07-22T22:52:12;29.90;52.00
53286;DHT22;39171;45.550;12.074;2022-07-22T22:58:14;29.90;52.50
53286;DHT22;39171;45.550;12.074;2022-07-22T23:04:16;29.90;52.90
53286;DHT22;39171;45.550;12.074;2022-07-22T23:10:17;29.90;53.40
53286;DHT22;39171;45.550;12.074;2022-07-22T23:16:19;29.90;53.80
53286;DHT22;39171;45.550;12.074;2022-07-22T23:22:21;29.90;54.50
53286;DHT22;39171;45.550;12.074;2022-07-22T23:28:24;29.90;54.90
53286;DHT22;39171;45.550;12.074;2022-07-22T23:34:25;29.90;55.40
53286;DHT22;39171;45.550;12.074;2022-07-22T23:40:28;29.80;55.80
53286;DHT22;39171;45.550;12.074;2022-07-22T23:46:29;29.80;56.20
53286;DHT22;39171;45.550;12.074;2022-07-22T23:52:30;29.80;56.70
53286;DHT22;39171;45.550;12.074;2022-07-22T23:58:32;29.80;57.10
